sensor_id;sensor_type;location;lat;lon;timestamp;P1;durP1;ratioP1;P2;durP2;ratioP2
14474;SDS011;7323;50.848;4.334;2023-02-03T00:07:46;9.13;;;3.53;;
14474;SDS011;7323;50.848;4.334;2023-02-03T00:10:12;9.73;;;3.37;;
14474;SDS011;7323;50.848;4.334;2023-02-03T00:12:38;8.23;;;3.70;;
14474;SDS011;7323;50.848;4.334;2023-02-03T00:15:05;9.27;;;3.50;;
14474;SDS011;7323;50.848;4.334;2023-02-03T00:17:31;11.33;;;3.77;;
14474;SDS011;7323;50.848;4.334;2023-02-03T00:19:57;9.13;;;3.70;;
14474;SDS011;7323;50.848;4.334;2023-02-03T00:22:22;8.57;;;3.03;;
14474;SDS011;7323;50.848;4.334;2023-02-03T00:24:51;8.03;;;3.50;;
14474;SDS011;7323;50.848;4.334;2023-02-03T00:30:39;13.73;;;3.33;;
14474;SDS011;7323;50.848;4.334;2023-02-03T00:33:05;9.40;;;3.67;;
14474;SDS011;7323;50.848;4.334;2023-02-03T00:35:30;10.70;;;3.13;;
14474;SDS011;7323;50.848;4.334;2023-02-03T00:37:56;9.03;;;2.80;;
14474;SDS011;7323;50.848;4.334;2023-02-03T00:40:23;7.83;;;3.00;;
14474;SDS011;7323;50.848;4.334;2023-02-03T00:42:52;10.80;;;3.30;;
14474;SDS011;7323;50.848;4.334;2023-02-03T00:45:22;8.00;;;3.30;;
14474;SDS011;7323;50.848;4.334;2023-02-03T00:47:49;10.20;;;3.00;;
14474;SDS011;7323;50.848;4.334;2023-02-03T00:50:15;11.00;;;3.17;;
14474;SDS011;7323;50.848;4.334;2023-02-03T00:52:41;7.83;;;2.80;;
14474;SDS011;7323;50.848;4.334;2023-02-03T00:55:07;8.17;;;3.57;;
14474;SDS011;7323;50.848;4.334;2023-02-03T00:57:33;11.60;;;3.93;;
14474;SDS011;7323;50.848;4.334;2023-02-03T00:59:59;7.50;;;3.43;;
14474;SDS011;7323;50.848;4.334;2023-02-03T01:02:24;8.63;;;3.00;;
14474;SDS011;7323;50.848;4.334;2023-02-03T01:04:50;15.63;;;3.60;;
14474;SDS011;7323;50.848;4.334;2023-02-03T01:07:19;12.60;;;3.70;;
14474;SDS011;7323;50.848;4.334;2023-02-03T01:09:45;9.87;;;3.07;;
14474;SDS011;7323;50.848;4.334;2023-02-03T01:12:21;13.53;;;3.20;;
14474;SDS011;7323;50.848;4.334;2023-02-03T01:17:43;12.07;;;3.53;;
14474;SDS011;7323;50.848;4.334;2023-02-03T01:22:56;10.07;;;3.37;;
14474;SDS011;7323;50.848;4.334;2023-02-03T01:25:22;11.23;;;2.93;;
14474;SDS011;7323;50.848;4.334;2023-02-03T01:27:48;8.33;;;2.50;;
14474;SDS011;7323;50.848;4.334;2023-02-03T01:30:13;7.07;;;2.80;;
14474;SDS011;7323;50.848;4.334;2023-02-03T01:32:40;13.17;;;3.40;;
14474;SDS011;7323;50.848;4.334;2023-02-03T01:35:06;13.93;;;3.57;;
14474;SDS011;7323;50.848;4.334;2023-02-03T01:37:31;10.63;;;3.17;;
14474;SDS011;7323;50.848;4.334;2023-02-03T01:39:58;10.00;;;2.73;;
14474;SDS011;7323;50.848;4.334;2023-02-03T01:42:25;10.97;;;2.77;;
14474;SDS011;7323;50.848;4.334;2023-02-03T01:44:51;10.70;;;3.47;;
14474;SDS011;7323;50.848;4.334;2023-02-03T01:47:17;11.90;;;2.70;;
14474;SDS011;7323;50.848;4.334;2023-02-03T01:50:07;11.77;;;3.47;;
14474;SDS011;7323;50.848;4.334;2023-02-03T01:52:34;10.10;;;2.80;;
14474;SDS011;7323;50.848;4.334;2023-02-03T01:55:02;9.87;;;2.70;;
14474;SDS011;7323;50.848;4.334;2023-02-03T01:57:38;11.13;;;2.73;;
14474;SDS011;7323;50.848;4.334;2023-02-03T02:00:11;10.77;;;2.57;;
14474;SDS011;7323;50.848;4.334;2023-02-03T02:02:37;10.97;;;2.67;;
14474;SDS011;7323;50.848;4.334;2023-02-03T02:05:05;11.90;;;2.77;;
14474;SDS011;7323;50.848;4.334;2023-02-03T02:07:44;7.10;;;2.50;;
14474;SDS011;7323;50.848;4.334;2023-02-03T02:10:12;9.03;;;2.50;;
14474;SDS011;7323;50.848;4.334;2023-02-03T02:12:38;11.30;;;2.10;;
14474;SDS011;7323;50.848;4.334;2023-02-03T02:15:04;8.17;;;2.33;;
14474;SDS011;7323;50.848;4.334;2023-02-03T02:23:19;9.87;;;2.27;;
14474;SDS011;7323;50.848;4.334;2023-02-03T02:37:06;12.10;;;3.03;;
14474;SDS011;7323;50.848;4.334;2023-02-03T02:48:19;9.20;;;2.57;;
14474;SDS011;7323;50.848;4.334;2023-02-03T02:51:01;7.10;;;2.37;;
14474;SDS011;7323;50.848;4.334;2023-02-03T02:53:31;11.90;;;2.60;;
14474;SDS011;7323;50.848;4.334;2023-02-03T02:56:02;11.07;;;2.80;;
14474;SDS011;7323;50.848;4.334;2023-02-03T02:58:45;11.73;;;2.70;;
14474;SDS011;7323;50.848;4.334;2023-02-03T03:04:09;7.70;;;2.00;;
14474;SDS011;7323;50.848;4.334;2023-02-03T03:06:40;6.53;;;2.03;;
14474;SDS011;7323;50.848;4.334;2023-02-03T03:12:09;9.83;;;2.47;;
14474;SDS011;7323;50.848;4.334;2023-02-03T03:20:54;8.57;;;1.77;;
14474;SDS011;7323;50.848;4.334;2023-02-03T03:23:25;10.07;;;2.57;;
14474;SDS011;7323;50.848;4.334;2023-02-03T03:25:58;11.70;;;3.03;;
14474;SDS011;7323;50.848;4.334;2023-02-03T03:28:32;9.17;;;2.77;;
14474;SDS011;7323;50.848;4.334;2023-02-03T03:31:06;10.50;;;2.50;;
14474;SDS011;7323;50.848;4.334;2023-02-03T03:33:32;7.87;;;2.00;;
14474;SDS011;7323;50.848;4.334;2023-02-03T03:36:03;9.77;;;3.03;;
14474;SDS011;7323;50.848;4.334;2023-02-03T03:38:54;5.97;;;1.80;;
14474;SDS011;7323;50.848;4.334;2023-02-03T03:43:46;8.23;;;2.00;;
14474;SDS011;7323;50.848;4.334;2023-02-03T03:46:16;6.83;;;1.60;;
14474;SDS011;7323;50.848;4.334;2023-02-03T03:48:49;7.80;;;1.70;;
14474;SDS011;7323;50.848;4.334;2023-02-03T03:51:40;9.63;;;2.40;;
14474;SDS011;7323;50.848;4.334;2023-02-03T03:54:13;5.83;;;1.77;;
14474;SDS011;7323;50.848;4.334;2023-02-03T03:59:39;9.80;;;1.90;;
14474;SDS011;7323;50.848;4.334;2023-02-03T04:02:08;8.87;;;2.00;;
14474;SDS011;7323;50.848;4.334;2023-02-03T04:04:36;9.97;;;2.27;;
14474;SDS011;7323;50.848;4.334;2023-02-03T04:07:03;6.63;;;1.93;;
14474;SDS011;7323;50.848;4.334;2023-02-03T04:09:32;4.77;;;1.77;;
14474;SDS011;7323;50.848;4.334;2023-02-03T04:12:01;5.03;;;1.97;;
14474;SDS011;7323;50.848;4.334;2023-02-03T04:14:31;9.20;;;2.20;;
14474;SDS011;7323;50.848;4.334;2023-02-03T04:17:01;7.87;;;1.60;;
14474;SDS011;7323;50.848;4.334;2023-02-03T04:19:27;5.43;;;1.63;;
14474;SDS011;7323;50.848;4.334;2023-02-03T04:22:01;5.80;;;1.77;;
14474;SDS011;7323;50.848;4.334;2023-02-03T04:24:28;8.93;;;2.50;;
14474;SDS011;7323;50.848;4.334;2023-02-03T04:26:53;5.13;;;1.77;;
14474;SDS011;7323;50.848;4.334;2023-02-03T04:29:19;6.70;;;1.93;;
14474;SDS011;7323;50.848;4.334;2023-02-03T04:31:45;5.13;;;1.50;;
14474;SDS011;7323;50.848;4.334;2023-02-03T04:34:11;5.43;;;1.63;;
14474;SDS011;7323;50.848;4.334;2023-02-03T04:36:36;7.43;;;1.90;;
14474;SDS011;7323;50.848;4.334;2023-02-03T04:39:02;7.47;;;2.17;;
14474;SDS011;7323;50.848;4.334;2023-02-03T04:41:28;8.60;;;1.80;;
14474;SDS011;7323;50.848;4.334;2023-02-03T04:43:53;9.77;;;2.03;;
14474;SDS011;7323;50.848;4.334;2023-02-03T04:46:19;5.93;;;1.90;;
14474;SDS011;7323;50.848;4.334;2023-02-03T04:48:45;8.53;;;1.77;;
14474;SDS011;7323;50.848;4.334;2023-02-03T04:51:11;8.47;;;1.70;;
14474;SDS011;7323;50.848;4.334;2023-02-03T04:53:37;5.90;;;1.60;;
14474;SDS011;7323;50.848;4.334;2023-02-03T04:56:03;7.07;;;1.70;;
14474;SDS011;7323;50.848;4.334;2023-02-03T04:58:29;4.87;;;1.50;;
14474;SDS011;7323;50.848;4.334;2023-02-03T05:03:36;9.13;;;2.00;;
14474;SDS011;7323;50.848;4.334;2023-02-03T05:06:02;4.60;;;1.63;;
14474;SDS011;7323;50.848;4.334;2023-02-03T05:08:28;6.03;;;1.90;;
14474;SDS011;7323;50.848;4.334;2023-02-03T05:10:55;6.00;;;1.73;;
14474;SDS011;7323;50.848;4.334;2023-02-03T05:13:21;6.07;;;1.67;;
14474;SDS011;7323;50.848;4.334;2023-02-03T05:15:51;5.23;;;1.90;;
14474;SDS011;7323;50.848;4.334;2023-02-03T05:18:20;5.37;;;1.60;;
14474;SDS011;7323;50.848;4.334;2023-02-03T05:20:45;4.90;;;1.60;;
14474;SDS011;7323;50.848;4.334;2023-02-03T05:23:13;4.27;;;1.30;;
14474;SDS011;7323;50.848;4.334;2023-02-03T05:25:39;7.20;;;2.43;;
14474;SDS011;7323;50.848;4.334;2023-02-03T05:28:07;4.60;;;1.43;;
14474;SDS011;7323;50.848;4.334;2023-02-03T05:30:33;6.40;;;1.73;;
14474;SDS011;7323;50.848;4.334;2023-02-03T05:32:59;5.77;;;1.63;;
14474;SDS011;7323;50.848;4.334;2023-02-03T05:35:25;7.20;;;1.77;;
14474;SDS011;7323;50.848;4.334;2023-02-03T05:38:00;4.70;;;1.53;;
14474;SDS011;7323;50.848;4.334;2023-02-03T05:40:26;6.10;;;1.93;;
14474;SDS011;7323;50.848;4.334;2023-02-03T05:43:11;5.10;;;1.40;;
14474;SDS011;7323;50.848;4.334;2023-02-03T05:45:37;5.60;;;1.40;;
14474;SDS011;7323;50.848;4.334;2023-02-03T05:48:03;4.07;;;1.47;;
14474;SDS011;7323;50.848;4.334;2023-02-03T05:50:34;6.53;;;1.77;;
14474;SDS011;7323;50.848;4.334;2023-02-03T05:55:30;6.70;;;1.77;;
14474;SDS011;7323;50.848;4.334;2023-02-03T06:00:26;5.10;;;1.37;;
14474;SDS011;7323;50.848;4.334;2023-02-03T06:02:53;7.13;;;1.67;;
14474;SDS011;7323;50.848;4.334;2023-02-03T06:05:20;5.73;;;1.93;;
14474;SDS011;7323;50.848;4.334;2023-02-03T06:07:49;4.00;;;1.47;;
14474;SDS011;7323;50.848;4.334;2023-02-03T06:10:15;5.53;;;1.70;;
14474;SDS011;7323;50.848;4.334;2023-02-03T06:12:41;7.03;;;1.60;;
14474;SDS011;7323;50.848;4.334;2023-02-03T06:15:07;7.60;;;1.80;;
14474;SDS011;7323;50.848;4.334;2023-02-03T06:17:34;6.93;;;1.63;;
14474;SDS011;7323;50.848;4.334;2023-02-03T06:20:04;5.33;;;1.60;;
14474;SDS011;7323;50.848;4.334;2023-02-03T06:22:31;6.50;;;1.93;;
14474;SDS011;7323;50.848;4.334;2023-02-03T06:24:58;10.47;;;2.17;;
14474;SDS011;7323;50.848;4.334;2023-02-03T06:27:27;4.57;;;1.77;;
14474;SDS011;7323;50.848;4.334;2023-02-03T06:29:53;6.03;;;1.80;;
14474;SDS011;7323;50.848;4.334;2023-02-03T06:32:19;6.20;;;2.03;;
14474;SDS011;7323;50.848;4.334;2023-02-03T06:34:45;6.00;;;1.80;;
14474;SDS011;7323;50.848;4.334;2023-02-03T06:37:11;6.20;;;1.63;;
14474;SDS011;7323;50.848;4.334;2023-02-03T06:42:06;7.00;;;1.87;;
14474;SDS011;7323;50.848;4.334;2023-02-03T06:44:31;6.43;;;1.80;;
14474;SDS011;7323;50.848;4.334;2023-02-03T06:46:59;6.73;;;1.80;;
14474;SDS011;7323;50.848;4.334;2023-02-03T06:49:26;8.40;;;2.13;;
14474;SDS011;7323;50.848;4.334;2023-02-03T06:51:53;5.77;;;1.87;;
14474;SDS011;7323;50.848;4.334;2023-02-03T06:54:24;5.67;;;1.73;;
14474;SDS011;7323;50.848;4.334;2023-02-03T07:02:58;6.47;;;1.77;;
14474;SDS011;7323;50.848;4.334;2023-02-03T07:05:44;7.10;;;2.00;;
14474;SDS011;7323;50.848;4.334;2023-02-03T07:08:10;4.30;;;1.50;;
14474;SDS011;7323;50.848;4.334;2023-02-03T07:10:36;7.73;;;2.17;;
14474;SDS011;7323;50.848;4.334;2023-02-03T07:13:03;7.37;;;1.80;;
14474;SDS011;7323;50.848;4.334;2023-02-03T07:18:33;8.57;;;2.10;;
14474;SDS011;7323;50.848;4.334;2023-02-03T07:21:03;4.67;;;1.87;;
14474;SDS011;7323;50.848;4.334;2023-02-03T07:23:29;6.20;;;1.70;;
14474;SDS011;7323;50.848;4.334;2023-02-03T07:25:57;5.93;;;2.17;;
14474;SDS011;7323;50.848;4.334;2023-02-03T07:28:23;7.83;;;2.07;;
14474;SDS011;7323;50.848;4.334;2023-02-03T07:30:51;7.70;;;1.63;;
14474;SDS011;7323;50.848;4.334;2023-02-03T07:35:52;9.20;;;1.90;;
14474;SDS011;7323;50.848;4.334;2023-02-03T07:38:19;8.57;;;2.37;;
14474;SDS011;7323;50.848;4.334;2023-02-03T07:40:45;10.47;;;2.40;;
14474;SDS011;7323;50.848;4.334;2023-02-03T07:43:11;6.97;;;2.07;;
14474;SDS011;7323;50.848;4.334;2023-02-03T07:45:36;5.23;;;1.90;;
14474;SDS011;7323;50.848;4.334;2023-02-03T07:48:02;4.70;;;1.77;;
14474;SDS011;7323;50.848;4.334;2023-02-03T07:50:28;7.63;;;2.20;;
14474;SDS011;7323;50.848;4.334;2023-02-03T07:52:54;7.80;;;2.40;;
14474;SDS011;7323;50.848;4.334;2023-02-03T07:55:20;7.20;;;2.00;;
14474;SDS011;7323;50.848;4.334;2023-02-03T07:57:46;8.40;;;2.10;;
14474;SDS011;7323;50.848;4.334;2023-02-03T08:00:13;6.73;;;1.83;;
14474;SDS011;7323;50.848;4.334;2023-02-03T08:02:40;5.67;;;2.00;;
14474;SDS011;7323;50.848;4.334;2023-02-03T08:05:09;6.00;;;2.57;;
14474;SDS011;7323;50.848;4.334;2023-02-03T08:07:35;12.87;;;2.60;;
14474;SDS011;7323;50.848;4.334;2023-02-03T08:13:00;4.97;;;2.20;;
14474;SDS011;7323;50.848;4.334;2023-02-03T08:15:26;6.63;;;2.37;;
14474;SDS011;7323;50.848;4.334;2023-02-03T08:17:54;6.50;;;2.67;;
14474;SDS011;7323;50.848;4.334;2023-02-03T08:20:28;7.97;;;2.47;;
14474;SDS011;7323;50.848;4.334;2023-02-03T08:26:17;7.97;;;2.20;;
14474;SDS011;7323;50.848;4.334;2023-02-03T08:32:08;7.53;;;2.00;;
14474;SDS011;7323;50.848;4.334;2023-02-03T08:34:35;6.90;;;2.00;;
14474;SDS011;7323;50.848;4.334;2023-02-03T08:37:02;9.73;;;2.17;;
14474;SDS011;7323;50.848;4.334;2023-02-03T08:39:28;6.97;;;2.67;;
14474;SDS011;7323;50.848;4.334;2023-02-03T08:41:54;5.47;;;1.90;;
14474;SDS011;7323;50.848;4.334;2023-02-03T08:44:20;7.73;;;1.97;;
14474;SDS011;7323;50.848;4.334;2023-02-03T08:46:51;4.67;;;1.70;;
14474;SDS011;7323;50.848;4.334;2023-02-03T08:49:24;7.23;;;2.33;;
14474;SDS011;7323;50.848;4.334;2023-02-03T08:51:51;5.30;;;1.73;;
14474;SDS011;7323;50.848;4.334;2023-02-03T08:54:20;7.10;;;2.33;;
14474;SDS011;7323;50.848;4.334;2023-02-03T08:57:03;8.07;;;3.57;;
14474;SDS011;7323;50.848;4.334;2023-02-03T08:59:29;6.33;;;1.63;;
14474;SDS011;7323;50.848;4.334;2023-02-03T09:05:05;11.97;;;4.00;;
14474;SDS011;7323;50.848;4.334;2023-02-03T09:07:33;18.73;;;9.60;;
14474;SDS011;7323;50.848;4.334;2023-02-03T09:10:00;9.03;;;3.10;;
14474;SDS011;7323;50.848;4.334;2023-02-03T09:12:26;8.37;;;3.00;;
14474;SDS011;7323;50.848;4.334;2023-02-03T09:14:52;8.80;;;2.13;;
14474;SDS011;7323;50.848;4.334;2023-02-03T09:17:18;6.00;;;1.80;;
14474;SDS011;7323;50.848;4.334;2023-02-03T09:22:13;7.67;;;2.93;;
14474;SDS011;7323;50.848;4.334;2023-02-03T09:27:09;10.63;;;4.50;;
14474;SDS011;7323;50.848;4.334;2023-02-03T09:29:36;7.60;;;4.90;;
14474;SDS011;7323;50.848;4.334;2023-02-03T09:32:02;6.57;;;2.77;;
14474;SDS011;7323;50.848;4.334;2023-02-03T09:37:33;14.50;;;6.80;;
14474;SDS011;7323;50.848;4.334;2023-02-03T09:40:00;5.63;;;1.70;;
14474;SDS011;7323;50.848;4.334;2023-02-03T09:42:37;8.57;;;2.10;;
14474;SDS011;7323;50.848;4.334;2023-02-03T09:45:26;7.40;;;2.03;;
14474;SDS011;7323;50.848;4.334;2023-02-03T09:47:53;5.53;;;2.27;;
14474;SDS011;7323;50.848;4.334;2023-02-03T09:50:26;8.87;;;4.00;;
14474;SDS011;7323;50.848;4.334;2023-02-03T09:52:54;9.83;;;4.63;;
14474;SDS011;7323;50.848;4.334;2023-02-03T09:55:41;6.93;;;2.60;;
14474;SDS011;7323;50.848;4.334;2023-02-03T09:58:15;14.13;;;6.60;;
14474;SDS011;7323;50.848;4.334;2023-02-03T10:00:49;8.47;;;3.60;;
14474;SDS011;7323;50.848;4.334;2023-02-03T10:06:37;5.67;;;2.37;;
14474;SDS011;7323;50.848;4.334;2023-02-03T10:09:15;6.57;;;2.47;;
14474;SDS011;7323;50.848;4.334;2023-02-03T10:12:21;7.37;;;2.70;;
14474;SDS011;7323;50.848;4.334;2023-02-03T10:15:10;6.13;;;2.53;;
14474;SDS011;7323;50.848;4.334;2023-02-03T10:18:02;4.60;;;2.53;;
14474;SDS011;7323;50.848;4.334;2023-02-03T10:20:33;11.40;;;7.13;;
14474;SDS011;7323;50.848;4.334;2023-02-03T10:23:06;5.97;;;2.60;;
14474;SDS011;7323;50.848;4.334;2023-02-03T10:25:41;11.17;;;3.37;;
14474;SDS011;7323;50.848;4.334;2023-02-03T10:28:15;4.50;;;2.60;;
14474;SDS011;7323;50.848;4.334;2023-02-03T10:30:54;7.87;;;2.37;;
14474;SDS011;7323;50.848;4.334;2023-02-03T10:33:24;6.33;;;3.00;;
14474;SDS011;7323;50.848;4.334;2023-02-03T10:36:05;6.17;;;3.03;;
14474;SDS011;7323;50.848;4.334;2023-02-03T10:41:49;7.83;;;4.23;;
14474;SDS011;7323;50.848;4.334;2023-02-03T10:44:15;13.77;;;6.93;;
14474;SDS011;7323;50.848;4.334;2023-02-03T10:46:42;7.47;;;3.83;;
14474;SDS011;7323;50.848;4.334;2023-02-03T10:49:10;7.13;;;3.00;;
14474;SDS011;7323;50.848;4.334;2023-02-03T10:57:16;7.83;;;4.47;;
14474;SDS011;7323;50.848;4.334;2023-02-03T10:59:43;7.20;;;2.80;;
14474;SDS011;7323;50.848;4.334;2023-02-03T11:02:27;14.10;;;6.60;;
14474;SDS011;7323;50.848;4.334;2023-02-03T11:08:16;4.97;;;2.83;;
14474;SDS011;7323;50.848;4.334;2023-02-03T11:10:48;7.90;;;4.10;;
14474;SDS011;7323;50.848;4.334;2023-02-03T11:13:18;6.03;;;2.57;;
14474;SDS011;7323;50.848;4.334;2023-02-03T11:18:50;10.37;;;5.20;;
14474;SDS011;7323;50.848;4.334;2023-02-03T11:21:30;5.70;;;2.53;;
14474;SDS011;7323;50.848;4.334;2023-02-03T11:24:05;9.67;;;3.20;;
14474;SDS011;7323;50.848;4.334;2023-02-03T11:26:44;5.60;;;2.83;;
14474;SDS011;7323;50.848;4.334;2023-02-03T11:29:20;6.40;;;2.40;;
14474;SDS011;7323;50.848;4.334;2023-02-03T11:31:56;6.13;;;2.77;;
14474;SDS011;7323;50.848;4.334;2023-02-03T11:34:26;8.00;;;2.70;;
14474;SDS011;7323;50.848;4.334;2023-02-03T11:36:55;6.40;;;2.70;;
14474;SDS011;7323;50.848;4.334;2023-02-03T11:39:26;6.77;;;2.60;;
14474;SDS011;7323;50.848;4.334;2023-02-03T11:42:08;5.53;;;2.40;;
14474;SDS011;7323;50.848;4.334;2023-02-03T11:44:46;7.87;;;2.97;;
14474;SDS011;7323;50.848;4.334;2023-02-03T11:47:11;6.17;;;2.60;;
14474;SDS011;7323;50.848;4.334;2023-02-03T11:49:56;6.63;;;2.60;;
14474;SDS011;7323;50.848;4.334;2023-02-03T12:18:47;8.97;;;3.00;;
14474;SDS011;7323;50.848;4.334;2023-02-03T12:27:25;7.83;;;3.30;;
14474;SDS011;7323;50.848;4.334;2023-02-03T12:29:57;8.77;;;3.83;;
14474;SDS011;7323;50.848;4.334;2023-02-03T12:32:29;10.93;;;3.20;;
14474;SDS011;7323;50.848;4.334;2023-02-03T12:38:09;9.47;;;3.57;;
14474;SDS011;7323;50.848;4.334;2023-02-03T12:46:49;9.27;;;3.53;;
14474;SDS011;7323;50.848;4.334;2023-02-03T12:54:53;10.27;;;4.70;;
14474;SDS011;7323;50.848;4.334;2023-02-03T13:00:35;9.50;;;4.13;;
14474;SDS011;7323;50.848;4.334;2023-02-03T13:05:42;10.80;;;3.53;;
14474;SDS011;7323;50.848;4.334;2023-02-03T13:14:27;9.23;;;4.23;;
14474;SDS011;7323;50.848;4.334;2023-02-03T13:17:04;8.10;;;3.73;;
14474;SDS011;7323;50.848;4.334;2023-02-03T13:19:41;9.73;;;4.83;;
14474;SDS011;7323;50.848;4.334;2023-02-03T13:25:38;8.23;;;4.13;;
14474;SDS011;7323;50.848;4.334;2023-02-03T13:40:18;8.60;;;4.00;;
14474;SDS011;7323;50.848;4.334;2023-02-03T13:42:57;7.87;;;4.20;;
14474;SDS011;7323;50.848;4.334;2023-02-03T13:45:35;7.23;;;4.03;;
14474;SDS011;7323;50.848;4.334;2023-02-03T13:48:16;7.67;;;4.23;;
14474;SDS011;7323;50.848;4.334;2023-02-03T13:50:50;7.63;;;3.80;;
14474;SDS011;7323;50.848;4.334;2023-02-03T13:53:28;12.93;;;4.40;;
14474;SDS011;7323;50.848;4.334;2023-02-03T13:56:01;7.10;;;3.93;;
14474;SDS011;7323;50.848;4.334;2023-02-03T13:58:29;7.17;;;3.93;;
14474;SDS011;7323;50.848;4.334;2023-02-03T14:00:58;7.57;;;4.57;;
14474;SDS011;7323;50.848;4.334;2023-02-03T14:05:58;8.47;;;4.93;;
14474;SDS011;7323;50.848;4.334;2023-02-03T14:16:33;6.40;;;3.93;;
14474;SDS011;7323;50.848;4.334;2023-02-03T14:19:00;11.17;;;4.37;;
14474;SDS011;7323;50.848;4.334;2023-02-03T14:24:29;8.67;;;4.73;;
14474;SDS011;7323;50.848;4.334;2023-02-03T14:26:58;7.10;;;4.60;;
14474;SDS011;7323;50.848;4.334;2023-02-03T14:29:35;8.57;;;3.80;;
14474;SDS011;7323;50.848;4.334;2023-02-03T14:32:04;8.93;;;3.60;;
14474;SDS011;7323;50.848;4.334;2023-02-03T14:37:50;8.27;;;3.30;;
14474;SDS011;7323;50.848;4.334;2023-02-03T15:00:06;5.90;;;3.10;;
14474;SDS011;7323;50.848;4.334;2023-02-03T15:05:43;4.13;;;2.03;;
14474;SDS011;7323;50.848;4.334;2023-02-03T15:08:29;5.77;;;2.20;;
14474;SDS011;7323;50.848;4.334;2023-02-03T15:10:59;4.43;;;2.13;;
14474;SDS011;7323;50.848;4.334;2023-02-03T15:13:39;4.27;;;2.20;;
14474;SDS011;7323;50.848;4.334;2023-02-03T15:16:09;8.80;;;2.47;;
14474;SDS011;7323;50.848;4.334;2023-02-03T15:18:42;5.43;;;2.33;;
14474;SDS011;7323;50.848;4.334;2023-02-03T15:21:22;4.63;;;2.57;;
14474;SDS011;7323;50.848;4.334;2023-02-03T15:23:51;5.50;;;2.80;;
14474;SDS011;7323;50.848;4.334;2023-02-03T15:26:21;5.40;;;2.93;;
14474;SDS011;7323;50.848;4.334;2023-02-03T15:29:01;4.80;;;2.43;;
14474;SDS011;7323;50.848;4.334;2023-02-03T15:31:51;7.83;;;3.50;;
14474;SDS011;7323;50.848;4.334;2023-02-03T15:34:40;6.77;;;2.67;;
14474;SDS011;7323;50.848;4.334;2023-02-03T15:37:14;6.93;;;2.70;;
14474;SDS011;7323;50.848;4.334;2023-02-03T15:40:00;5.13;;;2.27;;
14474;SDS011;7323;50.848;4.334;2023-02-03T15:42:36;7.90;;;2.83;;
14474;SDS011;7323;50.848;4.334;2023-02-03T15:48:29;8.80;;;2.70;;
14474;SDS011;7323;50.848;4.334;2023-02-03T15:51:06;4.43;;;2.20;;
14474;SDS011;7323;50.848;4.334;2023-02-03T15:53:34;5.47;;;2.10;;
14474;SDS011;7323;50.848;4.334;2023-02-03T15:59:21;7.07;;;3.50;;
14474;SDS011;7323;50.848;4.334;2023-02-03T16:01:50;6.80;;;3.87;;
14474;SDS011;7323;50.848;4.334;2023-02-03T16:04:17;8.33;;;2.60;;
14474;SDS011;7323;50.848;4.334;2023-02-03T16:06:51;5.90;;;2.47;;
14474;SDS011;7323;50.848;4.334;2023-02-03T16:12:21;5.43;;;2.90;;
14474;SDS011;7323;50.848;4.334;2023-02-03T16:14:53;5.03;;;3.50;;
14474;SDS011;7323;50.848;4.334;2023-02-03T16:17:24;5.13;;;2.37;;
14474;SDS011;7323;50.848;4.334;2023-02-03T16:20:41;4.87;;;2.77;;
14474;SDS011;7323;50.848;4.334;2023-02-03T16:25:26;4.47;;;2.70;;
14474;SDS011;7323;50.848;4.334;2023-02-03T16:28:15;5.22;;;2.58;;
14474;SDS011;7323;50.848;4.334;2023-02-03T16:31:13;8.57;;;3.90;;
14474;SDS011;7323;50.848;4.334;2023-02-03T16:34:00;9.50;;;3.47;;
14474;SDS011;7323;50.848;4.334;2023-02-03T16:36:51;3.90;;;2.63;;
14474;SDS011;7323;50.848;4.334;2023-02-03T16:39:35;7.87;;;3.10;;
14474;SDS011;7323;50.848;4.334;2023-02-03T16:42:20;5.70;;;2.97;;
14474;SDS011;7323;50.848;4.334;2023-02-03T16:45:15;7.13;;;2.67;;
14474;SDS011;7323;50.848;4.334;2023-02-03T16:48:00;7.73;;;3.07;;
14474;SDS011;7323;50.848;4.334;2023-02-03T16:50:57;5.10;;;2.93;;
14474;SDS011;7323;50.848;4.334;2023-02-03T16:53:46;8.90;;;4.03;;
14474;SDS011;7323;50.848;4.334;2023-02-03T16:58:49;6.67;;;3.47;;
14474;SDS011;7323;50.848;4.334;2023-02-03T17:01:15;7.13;;;2.77;;
14474;SDS011;7323;50.848;4.334;2023-02-03T17:03:41;6.67;;;3.03;;
14474;SDS011;7323;50.848;4.334;2023-02-03T17:06:15;7.73;;;3.33;;
14474;SDS011;7323;50.848;4.334;2023-02-03T17:11:19;6.33;;;3.00;;
14474;SDS011;7323;50.848;4.334;2023-02-03T17:13:50;6.63;;;2.47;;
14474;SDS011;7323;50.848;4.334;2023-02-03T17:16:38;9.47;;;3.20;;
14474;SDS011;7323;50.848;4.334;2023-02-03T17:22:04;7.80;;;3.93;;
14474;SDS011;7323;50.848;4.334;2023-02-03T17:27:26;8.40;;;3.20;;
14474;SDS011;7323;50.848;4.334;2023-02-03T17:29:53;7.80;;;4.17;;
14474;SDS011;7323;50.848;4.334;2023-02-03T17:32:39;4.53;;;3.00;;
14474;SDS011;7323;50.848;4.334;2023-02-03T17:41:53;9.87;;;4.20;;
14474;SDS011;7323;50.848;4.334;2023-02-03T17:44:32;8.80;;;3.77;;
14474;SDS011;7323;50.848;4.334;2023-02-03T17:46:59;7.77;;;4.27;;
14474;SDS011;7323;50.848;4.334;2023-02-03T17:49:26;5.60;;;3.90;;
14474;SDS011;7323;50.848;4.334;2023-02-03T17:51:51;8.90;;;3.70;;
14474;SDS011;7323;50.848;4.334;2023-02-03T17:54:19;7.87;;;4.43;;
14474;SDS011;7323;50.848;4.334;2023-02-03T17:56:45;6.33;;;3.70;;
14474;SDS011;7323;50.848;4.334;2023-02-03T17:59:13;6.30;;;3.97;;
14474;SDS011;7323;50.848;4.334;2023-02-03T18:01:42;7.50;;;3.57;;
14474;SDS011;7323;50.848;4.334;2023-02-03T18:04:09;6.90;;;3.57;;
14474;SDS011;7323;50.848;4.334;2023-02-03T18:06:35;8.00;;;3.70;;
14474;SDS011;7323;50.848;4.334;2023-02-03T18:09:05;8.57;;;4.10;;
14474;SDS011;7323;50.848;4.334;2023-02-03T18:11:35;9.43;;;4.00;;
14474;SDS011;7323;50.848;4.334;2023-02-03T18:14:02;10.73;;;5.80;;
14474;SDS011;7323;50.848;4.334;2023-02-03T18:16:30;7.53;;;4.00;;
14474;SDS011;7323;50.848;4.334;2023-02-03T18:18:57;7.63;;;4.57;;
14474;SDS011;7323;50.848;4.334;2023-02-03T18:21:25;6.53;;;3.70;;
14474;SDS011;7323;50.848;4.334;2023-02-03T18:23:51;7.73;;;5.07;;
14474;SDS011;7323;50.848;4.334;2023-02-03T18:29:17;11.23;;;5.80;;
14474;SDS011;7323;50.848;4.334;2023-02-03T18:31:43;15.00;;;8.50;;
14474;SDS011;7323;50.848;4.334;2023-02-03T18:34:09;10.43;;;6.03;;
14474;SDS011;7323;50.848;4.334;2023-02-03T18:36:35;15.17;;;6.53;;
14474;SDS011;7323;50.848;4.334;2023-02-03T18:39:01;10.10;;;5.70;;
14474;SDS011;7323;50.848;4.334;2023-02-03T18:41:28;14.17;;;7.17;;
14474;SDS011;7323;50.848;4.334;2023-02-03T18:43:54;8.83;;;5.27;;
14474;SDS011;7323;50.848;4.334;2023-02-03T18:51:58;11.00;;;7.03;;
14474;SDS011;7323;50.848;4.334;2023-02-03T18:54:24;13.57;;;6.30;;
14474;SDS011;7323;50.848;4.334;2023-02-03T18:56:50;17.47;;;8.50;;
14474;SDS011;7323;50.848;4.334;2023-02-03T18:59:16;27.07;;;16.20;;
14474;SDS011;7323;50.848;4.334;2023-02-03T19:01:42;11.90;;;7.67;;
14474;SDS011;7323;50.848;4.334;2023-02-03T19:07:12;11.43;;;7.83;;
14474;SDS011;7323;50.848;4.334;2023-02-03T19:09:38;11.10;;;7.57;;
14474;SDS011;7323;50.848;4.334;2023-02-03T19:12:04;12.17;;;7.63;;
14474;SDS011;7323;50.848;4.334;2023-02-03T19:14:31;15.27;;;8.47;;
14474;SDS011;7323;50.848;4.334;2023-02-03T19:16:59;11.73;;;7.97;;
14474;SDS011;7323;50.848;4.334;2023-02-03T19:19:24;13.33;;;7.90;;
14474;SDS011;7323;50.848;4.334;2023-02-03T19:21:50;12.67;;;7.67;;
14474;SDS011;7323;50.848;4.334;2023-02-03T19:24:17;11.40;;;7.80;;
14474;SDS011;7323;50.848;4.334;2023-02-03T19:26:44;13.60;;;7.73;;
14474;SDS011;7323;50.848;4.334;2023-02-03T19:32:04;15.00;;;8.10;;
14474;SDS011;7323;50.848;4.334;2023-02-03T19:34:32;11.27;;;8.17;;
14474;SDS011;7323;50.848;4.334;2023-02-03T19:36:57;17.57;;;11.30;;
14474;SDS011;7323;50.848;4.334;2023-02-03T19:39:23;17.00;;;10.90;;
14474;SDS011;7323;50.848;4.334;2023-02-03T19:41:55;12.73;;;9.00;;
14474;SDS011;7323;50.848;4.334;2023-02-03T19:44:25;16.70;;;7.63;;
14474;SDS011;7323;50.848;4.334;2023-02-03T19:46:57;16.50;;;10.53;;
14474;SDS011;7323;50.848;4.334;2023-02-03T19:49:23;18.27;;;10.30;;
14474;SDS011;7323;50.848;4.334;2023-02-03T19:57:36;17.37;;;8.17;;
14474;SDS011;7323;50.848;4.334;2023-02-03T20:03:09;11.87;;;8.00;;
14474;SDS011;7323;50.848;4.334;2023-02-03T20:05:43;13.23;;;8.33;;